Time;durP1;ratioP1;P1;durP2;ratioP2;P2;SDS_P1;SDS_P2;PMS_P1;PMS_P2;Temp;Humidity;BMP_temperature;BMP_pressure;BME280_temperature;BME280_humidity;BME280_pressure;Samples;Min_cycle;Max_cycle;Signal;HPM_P1;HPM_P2
2023/08/13 00:00:15;;;;;;;7.87;5.17;;;;;18.20;97281.00;;;;5031191;28;20208;-88
2023/08/13 00:03:07;;;;;;;7.40;5.27;;;;;18.50;97275.00;;;;5021349;28;20226;-87
2023/08/13 00:05:56;;;;;;;7.80;5.70;;;;;18.70;97279.00;;;;5025777;28;20205;-87
2023/08/13 00:08:45;;;;;;;6.70;4.97;;;;;18.90;97280.00;;;;5006498;28;20207;-87
2023/08/13 00:11:34;;;;;;;6.93;5.17;;;;;19.10;97275.00;;;;5003743;28;20217;-86
2023/08/13 00:14:23;;;;;;;6.00;4.80;;;;;19.20;97279.00;;;;5026472;28;20233;-87
2023/08/13 00:17:12;;;;;;;5.47;4.90;;;;;18.70;97282.00;;;;5003335;28;20210;-87
2023/08/13 00:20:04;;;;;;;6.13;5.53;;;;;18.50;97281.00;;;;5007451;28;20214;-87
2023/08/13 00:22:53;;;;;;;6.67;5.50;;;;;18.50;97276.00;;;;5012517;28;20699;-87
2023/08/13 00:25:42;;;;;;;10.97;5.33;;;;;18.50;97276.00;;;;5016399;28;20259;-86
2023/08/13 00:28:31;;;;;;;6.60;5.07;;;;;18.40;97280.00;;;;5018095;28;20248;-87
2023/08/13 00:31:20;;;;;;;7.10;5.13;;;;;18.40;97274.00;;;;5020504;28;20206;-87
2023/08/13 00:34:09;;;;;;;5.23;4.50;;;;;18.30;97277.00;;;;5017928;28;20205;-87
2023/08/13 00:37:00;;;;;;;6.47;5.87;;;;;18.30;97271.00;;;;5018505;28;20649;-86
2023/08/13 00:39:49;;;;;;;5.77;5.27;;;;;18.10;97269.00;;;;5004877;28;20583;-87
2023/08/13 00:42:38;;;;;;;5.27;4.77;;;;;18.20;97279.00;;;;5022881;28;20264;-87
2023/08/13 00:45:27;;;;;;;6.17;5.57;;;;;18.10;97269.00;;;;5027275;28;20202;-86
2023/08/13 00:48:16;;;;;;;5.90;5.30;;;;;18.10;97271.00;;;;5019017;28;20388;-87
2023/08/13 00:51:06;;;;;;;6.10;5.47;;;;;18.00;97275.00;;;;5023114;28;20678;-87
2023/08/13 00:53:57;;;;;;;6.37;5.67;;;;;18.00;97279.00;;;;5019722;28;20225;-87
2023/08/13 00:56:47;;;;;;;6.57;5.33;;;;;18.30;97275.00;;;;5015610;28;20205;-86
2023/08/13 00:59:37;;;;;;;5.63;5.03;;;;;18.30;97269.00;;;;5003179;28;20258;-87
2023/08/13 01:02:26;;;;;;;5.63;5.13;;;;;18.20;97263.00;;;;5007406;28;20222;-86
2023/08/13 01:05:15;;;;;;;6.30;5.57;;;;;17.90;97271.00;;;;5003716;28;20628;-87
2023/08/13 01:08:13;;;;;;;7.80;5.23;;;;;17.80;97265.00;;;;5004182;28;20198;-87
2023/08/13 01:11:09;;;;;;;6.67;5.23;;;;;17.80;97262.00;;;;4997206;28;20198;-87
2023/08/13 01:14:02;;;;;;;5.80;4.80;;;;;18.20;97265.00;;;;5003341;28;20218;-87
2023/08/13 01:16:53;;;;;;;6.40;5.80;;;;;18.30;97266.00;;;;5001171;28;20202;-87
2023/08/13 01:19:43;;;;;;;6.13;5.53;;;;;18.30;97262.00;;;;4995988;28;20213;-87
2023/08/13 01:22:37;;;;;;;7.63;6.10;;;;;18.30;97259.00;;;;5011177;28;20721;-87
2023/08/13 01:25:27;;;;;;;6.50;5.90;;;;;18.30;97257.00;;;;5018363;28;20205;-88
2023/08/13 01:28:21;;;;;;;5.77;5.27;;;;;18.20;97258.00;;;;5016755;28;20263;-87
2023/08/13 01:31:13;;;;;;;9.80;4.93;;;;;17.90;97253.00;;;;4990636;28;20206;-87
2023/08/13 01:34:03;;;;;;;5.70;5.20;;;;;17.70;97246.00;;;;4999129;28;20618;-87
2023/08/13 01:36:52;;;;;;;8.37;5.63;;;;;17.90;97260.00;;;;5014841;28;20222;-87
2023/08/13 01:39:42;;;;;;;6.57;5.20;;;;;17.80;97252.00;;;;5005610;28;20578;-87
2023/08/13 01:42:34;;;;;;;5.80;5.20;;;;;17.80;97240.00;;;;5012503;28;20270;-87
2023/08/13 01:45:23;;;;;;;8.80;5.73;;;;;17.70;97244.00;;;;5008477;28;20273;-87
2023/08/13 01:48:12;;;;;;;7.83;5.33;;;;;17.70;97252.00;;;;5008424;28;20602;-87
2023/08/13 01:51:01;;;;;;;5.53;5.03;;;;;17.70;97241.00;;;;5012252;28;20330;-87
2023/08/13 01:53:50;;;;;;;6.67;5.73;;;;;17.60;97244.00;;;;4998389;28;20233;-88
2023/08/13 01:56:41;;;;;;;6.70;6.10;;;;;18.10;97245.00;;;;4996696;28;20234;-87
2023/08/13 01:59:30;;;;;;;7.20;5.93;;;;;18.30;97236.00;;;;5002955;28;20220;-87
2023/08/13 02:02:19;;;;;;;6.73;5.90;;;;;18.20;97243.00;;;;5007382;28;20640;-87
2023/08/13 02:05:09;;;;;;;6.17;5.43;;;;;18.00;97232.00;;;;5000048;28;20198;-88
2023/08/13 02:07:58;;;;;;;6.53;5.80;;;;;18.00;97233.00;;;;5012902;28;20220;-87
2023/08/13 02:10:47;;;;;;;6.80;6.10;;;;;18.00;97246.00;;;;5003507;28;20206;-87
2023/08/13 02:13:38;;;;;;;7.57;4.97;;;;;17.70;97238.00;;;;5004490;28;20304;-87
2023/08/13 02:16:27;;;;;;;6.53;5.33;;;;;17.50;97226.00;;;;5011028;28;20687;-88
2023/08/13 02:19:16;;;;;;;8.10;5.57;;;;;17.60;97233.00;;;;5004490;28;20640;-87
2023/08/13 02:22:05;;;;;;;6.40;5.63;;;;;17.50;97236.00;;;;4998821;28;20214;-88
2023/08/13 02:24:54;;;;;;;9.67;5.83;;;;;17.40;97233.00;;;;5006642;28;20249;-88
2023/08/13 02:27:43;;;;;;;9.07;6.00;;;;;17.40;97238.00;;;;5007663;28;20195;-88
2023/08/13 02:30:34;;;;;;;6.30;5.73;;;;;17.60;97234.00;;;;5006796;28;20206;-87
2023/08/13 02:33:23;;;;;;;7.70;6.50;;;;;17.70;97231.00;;;;5006127;28;20598;-87
2023/08/13 02:36:12;;;;;;;5.97;5.30;;;;;18.00;97229.00;;;;5006242;28;20222;-87
2023/08/13 02:39:01;;;;;;;6.33;5.73;;;;;18.00;97226.00;;;;5008838;28;20201;-88
2023/08/13 02:41:50;;;;;;;6.23;5.43;;;;;17.50;97221.00;;;;4999463;28;20206;-88
2023/08/13 02:44:39;;;;;;;8.67;6.30;;;;;17.20;97225.00;;;;5004118;28;20629;-87
2023/08/13 02:47:30;;;;;;;6.10;5.20;;;;;17.30;97223.00;;;;5004231;28;20201;-87
2023/08/13 02:50:19;;;;;;;6.07;5.47;;;;;17.50;97227.00;;;;5000399;28;20209;-88
2023/08/13 02:53:08;;;;;;;6.90;5.37;;;;;17.40;97220.00;;;;5004917;28;20222;-87
2023/08/13 02:55:57;;;;;;;11.50;6.47;;;;;17.00;97221.00;;;;5003794;28;20229;-87
2023/08/13 02:58:46;;;;;;;6.90;5.90;;;;;17.30;97229.00;;;;4993576;28;20420;-86
2023/08/13 03:01:35;;;;;;;7.00;6.30;;;;;17.60;97227.00;;;;5010006;28;20205;-87
2023/08/13 03:04:26;;;;;;;9.47;6.53;;;;;17.90;97222.00;;;;5007601;28;20222;-87
2023/08/13 03:07:15;;;;;;;9.30;6.20;;;;;18.00;97217.00;;;;5008179;28;20194;-87
2023/08/13 03:10:05;;;;;;;8.00;6.27;;;;;17.70;97218.00;;;;5000341;28;20206;-88
2023/08/13 03:12:54;;;;;;;6.73;5.50;;;;;17.30;97221.00;;;;5000609;28;20758;-87
2023/08/13 03:15:43;;;;;;;8.23;6.47;;;;;17.50;97216.00;;;;5003352;28;20249;-88
2023/08/13 03:18:32;;;;;;;6.43;5.83;;;;;17.90;97219.00;;;;5011392;28;20575;-88
2023/08/13 03:21:22;;;;;;;6.00;5.37;;;;;17.80;97227.00;;;;5016009;28;20205;-88
2023/08/13 03:24:11;;;;;;;7.03;6.23;;;;;17.80;97217.00;;;;5005071;28;20202;-87
2023/08/13 03:27:01;;;;;;;8.90;5.87;;;;;17.60;97225.00;;;;5004940;28;20206;-87
2023/08/13 03:29:50;;;;;;;6.03;5.53;;;;;17.40;97210.00;;;;5008906;28;20848;-88
2023/08/13 03:32:39;;;;;;;6.90;6.23;;;;;17.20;97218.00;;;;5011662;28;20233;-88
2023/08/13 03:35:28;;;;;;;7.90;5.87;;;;;17.00;97212.00;;;;5006232;28;20199;-90
2023/08/13 03:38:18;;;;;;;7.67;6.10;;;;;17.10;97216.00;;;;5009994;28;20202;-87
2023/08/13 03:41:08;;;;;;;7.17;5.73;;;;;17.40;97205.00;;;;5010956;28;20691;-87
2023/08/13 03:43:57;;;;;;;6.73;6.10;;;;;17.50;97212.00;;;;5003807;28;20252;-87
2023/08/13 03:46:46;;;;;;;7.43;6.73;;;;;17.70;97216.00;;;;4997266;28;20194;-87
2023/08/13 03:49:36;;;;;;;6.93;6.23;;;;;17.60;97214.00;;;;5013178;28;20209;-87
2023/08/13 03:52:25;;;;;;;8.93;6.60;;;;;17.50;97210.00;;;;5002908;28;20230;-87
2023/08/13 03:55:15;;;;;;;7.00;5.87;;;;;17.30;97221.00;;;;5010432;28;20356;-87
2023/08/13 03:58:05;;;;;;;7.87;5.80;;;;;17.40;97217.00;;;;5010916;28;20218;-87
2023/08/13 04:00:54;;;;;;;7.07;6.43;;;;;17.50;97221.00;;;;5004826;28;20438;-88
2023/08/13 04:03:43;;;;;;;10.27;6.30;;;;;17.30;97220.00;;;;5010320;28;20221;-87
2023/08/13 04:06:32;;;;;;;7.30;6.60;;;;;16.80;97219.00;;;;5030451;28;20193;-87
2023/08/13 04:09:21;;;;;;;8.33;6.93;;;;;17.30;97218.00;;;;5020824;28;20209;-87
2023/08/13 04:12:12;;;;;;;8.10;6.80;;;;;17.10;97219.00;;;;5010688;28;20226;-87
2023/08/13 04:15:02;;;;;;;7.77;6.50;;;;;17.30;97219.00;;;;5029909;28;20209;-87
2023/08/13 04:17:51;;;;;;;7.17;6.57;;;;;17.30;97223.00;;;;5018736;28;20280;-87
2023/08/13 04:20:40;;;;;;;6.83;6.00;;;;;16.80;97222.00;;;;5017954;28;20618;-89
2023/08/13 04:23:29;;;;;;;8.33;7.47;;;;;16.80;97222.00;;;;5003672;28;20229;-87
2023/08/13 04:26:18;;;;;;;7.50;6.63;;;;;17.10;97224.00;;;;5026060;28;20212;-88
2023/08/13 04:29:08;;;;;;;8.00;6.60;;;;;16.90;97235.00;;;;5014756;28;20206;-89
2023/08/13 04:31:58;;;;;;;14.87;8.23;;;;;17.30;97232.00;;;;5017571;28;20706;-87
2023/08/13 04:34:47;;;;;;;12.60;8.60;;;;;17.40;97231.00;;;;5017820;28;20213;-87
2023/08/13 04:37:36;;;;;;;8.73;7.07;;;;;17.30;97243.00;;;;5015182;28;20229;-87
2023/08/13 04:40:25;;;;;;;7.00;6.30;;;;;17.30;97236.00;;;;5021695;28;20213;-87
2023/08/13 04:43:15;;;;;;;11.43;7.67;;;;;17.30;97240.00;;;;5015883;28;20218;-88
2023/08/13 04:46:05;;;;;;;9.33;7.67;;;;;17.70;97243.00;;;;5030378;28;20205;-88
2023/08/13 04:48:54;;;;;;;7.43;6.67;;;;;17.40;97236.00;;;;5024319;28;20221;-87
2023/08/13 04:51:43;;;;;;;8.93;8.03;;;;;17.80;97257.00;;;;5010700;28;20209;-88
2023/08/13 04:54:32;;;;;;;9.60;7.07;;;;;18.30;97259.00;;;;5006705;28;20202;-87
2023/08/13 04:57:22;;;;;;;7.87;7.07;;;;;18.30;97248.00;;;;4998416;28;20226;-87
2023/08/13 05:00:12;;;;;;;9.23;6.67;;;;;18.30;97249.00;;;;4998087;28;20205;-88
2023/08/13 05:03:02;;;;;;;7.40;6.13;;;;;18.60;97247.00;;;;5009041;28;20237;-88
2023/08/13 05:05:51;;;;;;;9.07;7.00;;;;;18.60;97253.00;;;;5000701;28;20715;-88
2023/08/13 05:08:41;;;;;;;6.47;5.70;;;;;17.80;97254.00;;;;5002548;28;20210;-91
2023/08/13 05:11:30;;;;;;;6.97;6.27;;;;;18.10;97256.00;;;;5017221;28;21021;-88
2023/08/13 05:14:19;;;;;;;7.23;6.53;;;;;18.10;97258.00;;;;5018359;28;20221;-88
2023/08/13 05:17:18;;;;;;;6.37;4.90;;;;;18.00;97248.00;;;;5021447;28;20232;-89
2023/08/13 05:20:10;;;;;;;9.97;5.83;;;;;18.00;97252.00;;;;5022384;28;20256;-87
2023/08/13 05:22:59;;;;;;;6.57;5.90;;;;;18.30;97252.00;;;;5019846;28;20414;-87
2023/08/13 05:25:48;;;;;;;6.90;6.13;;;;;18.70;97256.00;;;;5004616;28;20560;-87
2023/08/13 05:28:37;;;;;;;6.67;6.07;;;;;18.80;97263.00;;;;4999561;28;20918;-86
2023/08/13 05:31:26;;;;;;;6.97;6.30;;;;;18.90;97248.00;;;;4998033;28;20202;-88
2023/08/13 05:34:15;;;;;;;6.90;6.00;;;;;18.90;97245.00;;;;5009568;28;20263;-87
2023/08/13 05:37:06;;;;;;;9.67;6.07;;;;;19.20;97256.00;;;;5001213;28;20611;-87
2023/08/13 05:39:55;;;;;;;7.40;6.67;;;;;19.60;97246.00;;;;5009933;28;20217;-86
2023/08/13 05:42:46;;;;;;;9.20;6.27;;;;;19.70;97252.00;;;;5004373;28;20277;-88
2023/08/13 05:45:35;;;;;;;6.90;5.13;;;;;20.00;97237.00;;;;5005402;28;20203;-87
2023/08/13 05:48:24;;;;;;;8.53;5.40;;;;;19.90;97260.00;;;;5013441;28;20197;-88
2023/08/13 05:51:13;;;;;;;7.47;5.87;;;;;19.70;97253.00;;;;5004751;28;20691;-87
2023/08/13 05:54:04;;;;;;;7.47;6.77;;;;;19.90;97256.00;;;;5000913;28;20573;-89
2023/08/13 05:56:54;;;;;;;7.23;5.83;;;;;20.00;97258.00;;;;5003710;28;20280;-88
2023/08/13 05:59:43;;;;;;;6.73;6.13;;;;;20.10;97246.00;;;;5005811;28;20219;-87
2023/08/13 06:02:32;;;;;;;6.73;6.03;;;;;20.20;97248.00;;;;4999721;28;20220;-90
2023/08/13 06:05:21;;;;;;;6.40;5.80;;;;;20.10;97252.00;;;;5006303;28;20213;-89
2023/08/13 06:08:11;;;;;;;9.20;6.73;;;;;20.60;97245.00;;;;5008062;28;20202;-88
2023/08/13 06:11:01;;;;;;;7.10;6.17;;;;;21.00;97253.00;;;;5009450;28;20264;-88
2023/08/13 06:13:50;;;;;;;7.33;6.63;;;;;21.30;97256.00;;;;5002634;28;20663;-88
2023/08/13 06:16:41;;;;;;;9.73;6.17;;;;;21.30;97253.00;;;;5000757;28;20217;-88
2023/08/13 06:19:30;;;;;;;7.07;6.37;;;;;21.60;97244.00;;;;5019052;28;20225;-88
2023/08/13 06:22:19;;;;;;;7.57;6.67;;;;;21.90;97247.00;;;;5023566;28;20256;-88
2023/08/13 06:25:09;;;;;;;7.97;7.20;;;;;22.00;97243.00;;;;4999860;28;20248;-87
2023/08/13 06:28:00;;;;;;;10.03;6.20;;;;;22.40;97247.00;;;;4998284;28;20198;-88
2023/08/13 06:30:49;;;;;;;6.97;6.17;;;;;22.60;97237.00;;;;4997424;28;20203;-88
2023/08/13 06:33:38;;;;;;;6.37;5.77;;;;;22.70;97249.00;;;;4996486;28;20225;-90
2023/08/13 06:36:27;;;;;;;6.90;5.30;;;;;22.90;97244.00;;;;5005117;28;20812;-88
2023/08/13 06:39:16;;;;;;;7.97;5.90;;;;;23.40;97240.00;;;;5008744;28;20612;-88
2023/08/13 06:42:06;;;;;;;5.83;5.03;;;;;23.40;97252.00;;;;4993562;28;20222;-87
2023/08/13 06:44:56;;;;;;;6.03;5.50;;;;;23.10;97241.00;;;;4994280;28;20202;-87
2023/08/13 06:47:45;;;;;;;6.73;6.07;;;;;23.30;97241.00;;;;5004082;28;20206;-92
2023/08/13 06:50:35;;;;;;;6.83;5.60;;;;;23.50;97248.00;;;;5008108;28;20206;-88
2023/08/13 06:53:24;;;;;;;7.43;5.97;;;;;23.50;97247.00;;;;4999511;28;20226;-87
2023/08/13 06:56:13;;;;;;;6.83;5.70;;;;;23.60;97254.00;;;;5008470;28;20209;-91
2023/08/13 06:59:02;;;;;;;5.73;5.10;;;;;23.50;97261.00;;;;5009221;28;20229;-88
2023/08/13 07:01:54;;;;;;;6.10;5.10;;;;;23.90;97270.00;;;;4998094;28;20221;-85
2023/08/13 07:04:44;;;;;;;7.40;6.30;;;;;24.00;97262.00;;;;4995205;28;20284;-86
2023/08/13 07:07:33;;;;;;;5.77;5.20;;;;;24.40;97268.00;;;;5010147;28;20261;-85
2023/08/13 07:10:22;;;;;;;6.40;5.83;;;;;24.70;97259.00;;;;5000029;28;20201;-85
2023/08/13 07:13:11;;;;;;;6.37;5.77;;;;;25.10;97275.00;;;;4999696;28;20222;-86
2023/08/13 07:16:01;;;;;;;6.77;5.97;;;;;25.40;97265.00;;;;4989580;28;20231;-92
2023/08/13 07:18:51;;;;;;;5.27;4.77;;;;;25.60;97273.00;;;;4994800;28;20788;-91
2023/08/13 07:21:40;;;;;;;5.60;4.93;;;;;25.80;97267.00;;;;4995436;28;20272;-88
2023/08/13 07:24:29;;;;;;;6.17;5.37;;;;;26.00;97272.00;;;;4988203;28;20207;-89
2023/08/13 07:27:19;;;;;;;5.20;4.70;;;;;26.00;97268.00;;;;4996139;28;20202;-88
2023/08/13 07:30:10;;;;;;;7.47;5.03;;;;;26.20;97272.00;;;;4997284;28;20568;-89
2023/08/13 07:32:59;;;;;;;7.70;5.27;;;;;26.10;97269.00;;;;4994361;28;20218;-88
2023/08/13 07:35:50;;;;;;;4.97;4.50;;;;;26.40;97270.00;;;;4989455;28;20234;-89
2023/08/13 07:38:42;;;;;;;5.40;5.00;;;;;26.50;97281.00;;;;4989869;28;20227;-88
2023/08/13 07:41:31;;;;;;;6.60;5.37;;;;;26.70;97268.00;;;;5002222;28;20210;-87
2023/08/13 07:44:20;;;;;;;5.27;4.77;;;;;26.90;97276.00;;;;4999443;28;20202;-87
2023/08/13 07:47:10;;;;;;;5.83;5.17;;;;;26.90;97278.00;;;;5005945;28;20203;-88
2023/08/13 07:50:00;;;;;;;6.80;5.13;;;;;27.10;97279.00;;;;5007291;28;20226;-87
2023/08/13 07:52:51;;;;;;;5.80;4.37;;;;;27.20;97269.00;;;;5002417;28;20282;-88
2023/08/13 07:55:40;;;;;;;6.87;5.07;;;;;27.20;97270.00;;;;5004508;28;20211;-87
2023/08/13 07:58:30;;;;;;;5.13;4.63;;;;;27.40;97262.00;;;;5011401;28;20236;-87
2023/08/13 08:01:19;;;;;;;6.03;4.63;;;;;27.70;97270.00;;;;5000506;28;20197;-87
2023/08/13 08:04:08;;;;;;;6.53;5.83;;;;;27.80;97272.00;;;;5013699;28;20859;-88
2023/08/13 08:06:58;;;;;;;5.93;5.20;;;;;28.10;97270.00;;;;5005288;28;20206;-88
2023/08/13 08:09:48;;;;;;;5.80;5.23;;;;;28.10;97267.00;;;;5010812;28;20459;-88
2023/08/13 08:12:37;;;;;;;5.73;5.13;;;;;28.40;97274.00;;;;5004439;28;20354;-87
2023/08/13 08:15:27;;;;;;;7.83;4.87;;;;;28.60;97270.00;;;;5019131;28;20282;-88
2023/08/13 08:18:16;;;;;;;5.07;4.57;;;;;28.70;97265.00;;;;5013756;28;20233;-87
2023/08/13 08:21:05;;;;;;;5.27;4.63;;;;;28.80;97268.00;;;;5004608;28;20234;-88
2023/08/13 08:23:54;;;;;;;7.07;5.27;;;;;29.00;97274.00;;;;5000522;28;20608;-88
2023/08/13 08:26:45;;;;;;;5.03;4.53;;;;;29.10;97270.00;;;;5006298;28;20209;-88
2023/08/13 08:29:34;;;;;;;5.10;4.70;;;;;29.30;97263.00;;;;5011287;28;20200;-89
2023/08/13 08:32:23;;;;;;;8.13;4.80;;;;;29.30;97264.00;;;;5003960;28;20234;-89
2023/08/13 08:35:12;;;;;;;4.57;4.17;;;;;29.40;97262.00;;;;5000977;28;20207;-88
2023/08/13 08:38:01;;;;;;;6.73;5.27;;;;;29.20;97265.00;;;;4997036;28;20259;-89
2023/08/13 08:40:53;;;;;;;7.17;4.80;;;;;29.40;97263.00;;;;5000899;28;20204;-88
2023/08/13 08:43:45;;;;;;;5.77;4.83;;;;;29.70;97261.00;;;;5002423;28;20230;-89
2023/08/13 08:46:35;;;;;;;10.67;5.97;;;;;30.00;97255.00;;;;5002715;28;20216;-88
2023/08/13 08:49:24;;;;;;;4.67;4.30;;;;;30.20;97247.00;;;;5010071;28;20601;-89
2023/08/13 08:52:14;;;;;;;5.23;4.43;;;;;30.20;97257.00;;;;5011359;28;20223;-88
2023/08/13 08:55:04;;;;;;;4.97;4.47;;;;;30.40;97255.00;;;;5004724;28;20261;-89
2023/08/13 08:57:54;;;;;;;5.07;4.47;;;;;30.60;97249.00;;;;5018635;28;20214;-88
2023/08/13 09:00:46;;;;;;;4.70;4.30;;;;;30.70;97241.00;;;;5002670;28;20205;-88
2023/08/13 09:03:35;;;;;;;5.17;4.67;;;;;30.80;97238.00;;;;5009367;28;20218;-89
2023/08/13 09:06:24;;;;;;;5.50;4.93;;;;;31.00;97239.00;;;;5027956;28;20206;-89
2023/08/13 09:09:13;;;;;;;7.53;5.00;;;;;30.20;97229.00;;;;5021657;28;20200;-89
2023/08/13 09:12:03;;;;;;;6.37;4.63;;;;;30.80;97230.00;;;;5021463;28;20235;-89
2023/08/13 09:14:55;;;;;;;6.20;5.23;;;;;31.00;97234.00;;;;5008915;28;20220;-88
2023/08/13 09:17:45;;;;;;;5.73;5.00;;;;;31.40;97233.00;;;;5025498;28;20205;-89
2023/08/13 09:20:35;;;;;;;5.43;4.93;;;;;31.70;97229.00;;;;5004795;28;20311;-87
2023/08/13 09:23:25;;;;;;;5.90;4.83;;;;;31.80;97232.00;;;;5003570;28;20225;-87
2023/08/13 09:26:14;;;;;;;5.43;4.20;;;;;31.50;97228.00;;;;5012542;28;20198;-88
2023/08/13 09:29:08;;;;;;;5.50;5.00;;;;;32.00;97236.00;;;;5002222;28;20208;-88
2023/08/13 09:31:57;;;;;;;5.20;4.70;;;;;31.80;97238.00;;;;4997067;28;20235;-86
2023/08/13 09:34:47;;;;;;;5.57;4.17;;;;;31.90;97232.00;;;;4998318;28;20569;-85
2023/08/13 09:37:36;;;;;;;4.43;4.03;;;;;32.30;97234.00;;;;4997411;28;20216;-85
2023/08/13 09:40:26;;;;;;;5.37;4.80;;;;;32.60;97238.00;;;;5015926;28;20253;-85
2023/08/13 09:43:18;;;;;;;9.32;3.70;;;;;32.40;97238.00;;;;5010756;28;20224;-85
2023/08/13 09:46:09;;;;;;;4.90;4.28;;;;;32.50;97242.00;;;;5001665;28;20213;-90
2023/08/13 09:49:00;;;;;;;4.90;4.50;;;;;32.50;97240.00;;;;5006686;28;20676;-90
2023/08/13 09:51:53;;;;;;;4.63;4.22;;;;;32.80;97241.00;;;;5007508;28;20481;-88
2023/08/13 09:54:47;;;;;;;7.38;5.55;;;;;33.00;97240.00;;;;5004706;28;20221;-90
2023/08/13 09:57:39;;;;;;;5.57;5.07;;;;;33.50;97247.00;;;;5017386;28;20264;-91
2023/08/13 10:00:28;;;;;;;5.50;5.00;;;;;33.50;97246.00;;;;5002761;28;20224;-91
2023/08/13 10:03:18;;;;;;;6.00;5.07;;;;;33.70;97237.00;;;;5010464;28;20634;-92
2023/08/13 10:06:08;;;;;;;5.68;4.45;;;;;33.80;97252.00;;;;5012150;28;20206;-92
2023/08/13 10:08:58;;;;;;;4.38;3.88;;;;;33.90;97242.00;;;;5023829;28;20205;-92
2023/08/13 10:11:47;;;;;;;4.22;3.67;;;;;34.10;97246.00;;;;5016922;28;20208;-90
2023/08/13 10:14:37;;;;;;;7.22;3.83;;;;;33.80;97244.00;;;;5020837;28;20249;-88
2023/08/13 10:17:27;;;;;;;5.18;4.22;;;;;33.80;97245.00;;;;5009742;28;20208;-92
2023/08/13 10:20:18;;;;;;;5.50;4.10;;;;;33.80;97248.00;;;;5004133;28;20540;-93
2023/08/13 10:23:11;;;;;;;6.28;3.40;;;;;34.30;97245.00;;;;4995964;28;20220;-90
2023/08/13 10:26:02;;;;;;;4.68;4.20;;;;;34.70;97242.00;;;;4997232;28;20204;-88
2023/08/13 10:28:54;;;;;;;6.03;4.32;;;;;34.80;97243.00;;;;4999810;28;20201;-90
2023/08/13 10:31:49;;;;;;;5.65;5.15;;;;;33.90;97236.00;;;;4992544;28;20899;-90
2023/08/13 10:34:42;;;;;;;5.72;4.45;;;;;34.50;97233.00;;;;4997600;28;20203;-91
2023/08/13 10:37:32;;;;;;;4.22;3.83;;;;;34.60;97236.00;;;;5004319;28;20205;-90
2023/08/13 10:40:21;;;;;;;4.28;3.90;;;;;35.10;97228.00;;;;5019573;28;20257;-90
2023/08/13 10:43:21;;;;;;;4.38;3.97;;;31.70;97.10;35.70;97254.00;;;;4995614;28;20717;-91
2023/08/13 10:46:10;;;;;;;5.97;4.20;;;31.80;97.00;35.00;97233.00;;;;5007166;28;20206;-90
2023/08/13 10:48:59;;;;;;;5.22;4.72;;;31.80;96.20;35.20;97232.00;;;;5005678;28;20268;-91
2023/08/13 10:51:49;;;;;;;5.75;3.58;;;31.90;95.30;34.30;97268.00;;;;5013077;28;20258;-91
2023/08/13 10:54:40;;;;;;;4.55;3.08;;;31.80;94.10;33.80;97221.00;;;;5024510;28;20205;-90
2023/08/13 10:57:29;;;;;;;5.50;3.72;;;31.60;93.30;33.90;97237.00;;;;5018768;28;20734;-91
2023/08/13 11:00:22;;;;;;;3.55;2.60;;;31.40;93.40;33.60;97223.00;;;;5020102;28;20212;-91
2023/08/13 11:03:22;;;;;;;4.60;4.03;;;31.10;93.00;34.50;97226.00;;;;5027922;28;20277;-91
2023/08/13 11:06:12;;;;;;;4.15;3.78;;;31.20;93.70;35.20;97225.00;;;;5021523;28;20219;-91
2023/08/13 11:09:01;;;;;;;5.28;3.40;;;31.40;94.30;34.70;97221.00;;;;5021436;28;20668;-90
2023/08/13 11:11:51;;;;;;;4.63;3.40;;;31.60;93.10;35.10;97211.00;;;;5001388;28;20586;-91
2023/08/13 11:14:42;;;;;;;3.72;3.38;;;31.70;92.90;34.80;97210.00;;;;5008113;28;20220;-91
2023/08/13 11:17:32;;;;;;;6.57;4.22;;;31.70;92.10;35.60;97245.00;;;;5025919;28;20208;-90
2023/08/13 11:20:21;;;;;;;4.15;3.72;;;31.90;92.50;34.90;97207.00;;;;5018603;28;20200;-91
2023/08/13 11:23:10;;;;;;;5.72;3.72;;;31.90;92.60;34.80;97209.00;;;;5021433;28;20696;-91
2023/08/13 11:26:00;;;;;;;3.53;3.17;;;31.70;91.80;34.40;97230.00;;;;5011818;28;20220;-89
2023/08/13 11:28:51;;;;;;;4.18;3.20;;;31.70;91.20;35.70;97216.00;;;;5024507;28;20201;-89
2023/08/13 11:31:45;;;;;;;4.30;3.90;;;31.90;92.10;35.90;97215.00;;;;5028340;28;20224;-90
2023/08/13 11:34:35;;;;;;;3.58;3.17;;;32.30;91.40;35.00;97210.00;;;;5019184;28;20236;-91
2023/08/13 11:37:24;;;;;;;4.18;3.78;;;32.30;90.30;36.20;97204.00;;;;5028690;28;20197;-90
2023/08/13 11:40:13;;;;;;;4.72;3.70;;;32.50;90.60;36.90;97202.00;;;;5031638;28;20209;-90
2023/08/13 11:43:05;;;;;;;4.07;3.67;;;32.80;91.30;37.30;97203.00;;;;5017376;28;20611;-91
2023/08/13 11:45:56;;;;;;;7.65;3.95;;;33.20;90.10;36.60;97226.00;;;;5006641;28;20210;-91
2023/08/13 11:48:45;;;;;;;4.20;3.78;;;33.30;90.50;37.50;97209.00;;;;5015046;28;20455;-90
2023/08/13 11:51:42;;;;;;;4.22;3.40;;;33.60;90.90;36.90;97208.00;;;;5014261;28;20284;-90
2023/08/13 11:54:31;;;;;;;3.67;3.38;;;33.70;86.60;37.60;97206.00;;;;5025075;28;20208;-90
2023/08/13 11:57:21;;;;;;;3.85;3.55;;;33.90;89.20;38.00;97198.00;;;;5020550;28;20201;-91
2023/08/13 12:00:13;;;;;;;5.30;3.65;;;34.10;88.80;37.10;97197.00;;;;5031470;28;20208;-90
2023/08/13 12:03:02;;;;;;;4.15;3.50;;;34.10;87.90;37.20;97199.00;;;;5018098;28;20221;-91
2023/08/13 12:05:53;;;;;;;3.75;3.28;;;34.20;84.40;37.50;97194.00;;;;5025021;28;20193;-91
2023/08/13 12:08:46;;;;;;;4.57;3.55;;;34.40;85.20;35.30;97191.00;;;;5032449;28;20205;-90
2023/08/13 12:11:35;;;;;;;4.05;3.40;;;33.80;85.00;37.20;97190.00;;;;5030978;28;20240;-91
2023/08/13 12:14:24;;;;;;;4.15;3.08;;;33.80;85.60;37.40;97193.00;;;;5015468;28;20222;-91
2023/08/13 12:17:13;;;;;;;4.65;3.90;;;34.00;87.40;37.60;97197.00;;;;5030730;28;20201;-90
2023/08/13 12:20:03;;;;;;;5.93;3.97;;;34.20;84.00;37.90;97188.00;;;;5024318;28;20734;-91
2023/08/13 12:22:53;;;;;;;3.60;3.17;;;34.30;85.80;38.90;97186.00;;;;4994161;28;20260;-91
2023/08/13 12:25:43;;;;;;;4.65;4.03;;;34.60;87.00;38.90;97186.00;;;;5011751;28;20636;-90
2023/08/13 12:28:34;;;;;;;3.83;3.28;;;34.90;85.60;39.00;97183.00;;;;5027922;28;20204;-91
2023/08/13 12:31:25;;;;;;;7.38;4.38;;;35.20;84.60;39.30;97173.00;;;;5016005;28;20221;-91
2023/08/13 12:34:13;;;;;;;4.25;3.88;;;35.40;83.30;38.50;97176.00;;;;5030500;28;20808;-90
2023/08/13 12:37:02;;;;;;;4.40;3.95;;;35.50;80.00;38.90;97174.00;;;;5020239;28;20205;-91
2023/08/13 12:39:51;;;;;;;3.83;3.53;;;35.50;81.90;37.50;97171.00;;;;5012117;28;20198;-90
2023/08/13 12:42:42;;;;;;;3.72;3.42;;;35.50;81.40;38.00;97170.00;;;;5023976;28;20224;-92
2023/08/13 12:45:31;;;;;;;3.35;3.15;;;35.40;81.30;39.30;97168.00;;;;5029657;28;20246;-91
2023/08/13 12:48:20;;;;;;;5.22;3.50;;;35.50;80.60;37.30;97169.00;;;;5019776;28;20208;-92
2023/08/13 12:51:09;;;;;;;4.40;3.67;;;35.30;79.20;38.40;97174.00;;;;5009908;28;20245;-91
2023/08/13 12:53:57;;;;;;;4.88;3.45;;;35.20;81.80;38.50;97171.00;;;;5023646;28;20776;-91
2023/08/13 12:56:46;;;;;;;3.58;3.22;;;35.30;80.90;38.40;97175.00;;;;5030523;28;20193;-90
2023/08/13 12:59:37;;;;;;;4.80;3.70;;;35.10;79.60;36.80;97173.00;;;;5010883;28;20198;-90
2023/08/13 13:02:26;;;;;;;5.60;3.22;;;35.00;79.60;38.70;97198.00;;;;5018945;28;20227;-92
2023/08/13 13:05:16;;;;;;;4.55;3.55;;;35.10;81.00;36.70;97184.00;;;;5021677;28;20208;-94
2023/08/13 13:08:06;;;;;;;6.70;3.00;;;34.90;78.80;38.10;97162.00;;;;5014358;28;20623;-90
2023/08/13 13:10:55;;;;;;;3.72;3.42;;;34.90;80.80;39.50;97200.00;;;;5006903;28;20225;-91
2023/08/13 13:13:45;;;;;;;5.70;3.90;;;35.20;81.60;37.90;97214.00;;;;5002690;28;20214;-90
2023/08/13 13:16:35;;;;;;;3.38;3.08;;;35.20;79.90;36.50;97197.00;;;;5028195;28;20247;-92
2023/08/13 13:19:24;;;;;;;3.65;3.28;;;34.50;79.90;37.30;97169.00;;;;5021197;28;20681;-90
2023/08/13 13:22:13;;;;;;;4.82;4.13;;;34.60;81.40;37.20;97158.00;;;;5017337;28;20221;-91
2023/08/13 13:25:02;;;;;;;8.50;5.75;;;34.50;80.00;38.50;97156.00;;;;5005002;28;20198;-91
2023/08/13 13:27:51;;;;;;;3.50;3.20;;;34.80;81.50;39.20;97153.00;;;;5004454;28;20216;-92
2023/08/13 13:30:40;;;;;;;4.78;3.38;;;35.20;82.60;39.00;97157.00;;;;5010031;28;20628;-91
2023/08/13 13:33:31;;;;;;;3.92;3.60;;;35.30;80.80;39.40;97133.00;;;;5000665;28;20214;-91
2023/08/13 13:36:20;;;;;;;4.65;2.92;;;35.50;81.70;38.80;97188.00;;;;5009678;28;20583;-91
2023/08/13 13:39:09;;;;;;;3.42;3.17;;;35.60;81.80;38.50;97186.00;;;;5022232;28;20202;-90
2023/08/13 13:41:58;;;;;;;4.63;2.87;;;35.40;80.10;38.60;97129.00;;;;5014548;28;20225;-92
2023/08/13 13:44:46;;;;;;;3.85;3.40;;;35.30;79.20;39.00;97158.00;;;;5020945;28;20198;-91